Time;durP1;ratioP1;P1;durP2;ratioP2;P2;SDS_P1;SDS_P2;PMS_P1;PMS_P2;Temp;Humidity;BMP_temperature;BMP_pressure;BME280_temperature;BME280_humidity;BME280_pressure;Samples;Min_cycle;Max_cycle;Signal;HPM_P1;HPM_P2
2023/04/08 00:02:25;;;;;;;44.70;25.27;;;3.80;71.90;;;;;;4711525;29;114822;-83
2023/04/08 00:04:54;;;;;;;41.97;25.88;;;3.80;71.90;;;;;;4727110;29;114829;-83
2023/04/08 00:07:23;;;;;;;42.65;24.48;;;3.80;71.90;;;;;;4726855;29;114698;-83
2023/04/08 00:09:50;;;;;;;44.53;25.20;;;3.80;71.90;;;;;;4707795;29;115106;-82
2023/04/08 00:12:18;;;;;;;41.22;24.35;;;3.80;71.80;;;;;;4721541;29;117031;-82
2023/04/08 00:14:45;;;;;;;43.75;25.55;;;3.80;71.90;;;;;;4724369;29;114367;-83
2023/04/08 00:17:13;;;;;;;42.22;24.85;;;3.80;71.80;;;;;;4719336;29;114567;-83
2023/04/08 00:19:40;;;;;;;40.75;22.60;;;3.80;71.80;;;;;;4703241;29;114930;-83
2023/04/08 00:22:07;;;;;;;43.80;25.40;;;3.80;71.70;;;;;;4725188;29;114903;-84
2023/04/08 00:24:35;;;;;;;36.53;22.45;;;3.80;71.80;;;;;;4709390;29;114583;-83
2023/04/08 00:27:03;;;;;;;40.03;23.35;;;3.80;71.80;;;;;;4707831;29;114500;-83
2023/04/08 00:29:31;;;;;;;43.15;24.50;;;3.70;71.80;;;;;;4693263;29;116535;-83
2023/04/08 00:31:58;;;;;;;39.92;23.77;;;3.70;71.80;;;;;;4707603;29;114591;-83
2023/04/08 00:34:26;;;;;;;41.67;24.90;;;3.80;71.80;;;;;;4722326;29;114930;-84
2023/04/08 00:36:55;;;;;;;37.20;22.90;;;3.80;71.80;;;;;;4722823;29;114549;-84
2023/04/08 00:39:23;;;;;;;40.63;24.75;;;3.80;71.90;;;;;;4705025;29;115378;-84
2023/04/08 00:41:53;;;;;;;43.55;24.77;;;3.80;71.80;;;;;;4705811;29;115076;-84
2023/04/08 00:44:21;;;;;;;40.72;24.67;;;3.80;71.90;;;;;;4705822;29;114628;-85
2023/04/08 00:46:48;;;;;;;36.58;23.38;;;3.80;71.90;;;;;;4721565;29;114772;-84
2023/04/08 00:49:16;;;;;;;41.63;25.40;;;3.80;71.90;;;;;;4704495;29;115498;-84
2023/04/08 00:51:43;;;;;;;40.08;24.25;;;3.80;72.00;;;;;;4704610;29;114956;-84
2023/04/08 00:54:10;;;;;;;41.80;24.90;;;3.80;72.10;;;;;;4721493;29;114505;-85
2023/04/08 00:56:38;;;;;;;43.65;26.02;;;3.80;72.10;;;;;;4728728;29;114430;-84
2023/04/08 00:59:05;;;;;;;45.20;25.05;;;3.80;72.10;;;;;;4696025;29;115228;-84
2023/04/08 01:02:28;;;;;;;43.08;26.42;;;3.80;72.10;;;;;;4709375;29;116891;-84
2023/04/08 01:05:19;;;;;;;45.65;26.25;;;3.80;72.00;;;;;;4708164;29;114562;-82
2023/04/08 01:07:47;;;;;;;46.90;25.90;;;3.70;72.20;;;;;;4692834;29;114930;-82
2023/04/08 01:10:26;;;;;;;48.88;27.15;;;3.70;72.20;;;;;;4705680;29;117896;-82
2023/04/08 01:13:03;;;;;;;49.83;28.45;;;3.70;72.20;;;;;;4677559;29;114726;-83
2023/04/08 01:15:31;;;;;;;44.47;24.95;;;3.70;72.30;;;;;;4679741;29;115038;-82
2023/04/08 01:18:01;;;;;;;49.13;26.75;;;3.80;72.20;;;;;;4691592;29;114583;-82
2023/04/08 01:20:28;;;;;;;53.10;30.15;;;3.70;72.10;;;;;;4661078;29;116354;-83
2023/04/08 01:23:00;;;;;;;49.80;26.40;;;3.70;72.10;;;;;;4704060;29;117753;-83
2023/04/08 01:25:37;;;;;;;48.50;27.45;;;3.70;72.20;;;;;;4704586;29;114494;-84
2023/04/08 01:28:11;;;;;;;47.10;25.70;;;3.70;72.30;;;;;;4675078;29;114655;-84
2023/04/08 01:30:39;;;;;;;47.28;26.00;;;3.70;72.20;;;;;;4689359;29;115312;-84
2023/04/08 01:33:11;;;;;;;53.00;28.45;;;3.70;72.10;;;;;;4689002;29;114728;-83
2023/04/08 01:35:38;;;;;;;49.97;28.55;;;3.70;72.30;;;;;;4689398;29;114849;-83
2023/04/08 01:38:12;;;;;;;58.65;31.65;;;3.80;72.30;;;;;;4671606;29;116759;-84
2023/04/08 01:40:41;;;;;;;55.45;29.77;;;3.80;72.40;;;;;;4686718;29;115204;-83
2023/04/08 01:43:11;;;;;;;56.80;30.25;;;3.80;72.40;;;;;;4676228;29;115025;-85
2023/04/08 01:45:39;;;;;;;53.08;29.08;;;3.80;72.40;;;;;;4712924;29;114553;-83
2023/04/08 01:48:06;;;;;;;56.83;31.02;;;3.80;72.30;;;;;;4713746;29;115393;-83
2023/04/08 01:50:34;;;;;;;60.15;32.03;;;3.80;72.30;;;;;;4681739;29;115212;-83
2023/04/08 01:53:01;;;;;;;61.10;31.58;;;3.80;72.30;;;;;;4708711;29;114754;-82
2023/04/08 01:55:29;;;;;;;57.20;31.08;;;3.80;72.30;;;;;;4679576;29;114598;-82
2023/04/08 01:58:01;;;;;;;58.38;29.92;;;3.80;72.20;;;;;;4665200;29;116186;-82
2023/04/08 02:00:29;;;;;;;64.60;32.03;;;3.80;72.20;;;;;;4664692;29;115163;-83
2023/04/08 02:02:57;;;;;;;67.28;35.15;;;3.70;72.30;;;;;;4664660;29;115071;-83
2023/04/08 02:05:26;;;;;;;64.47;33.40;;;3.70;72.30;;;;;;4696653;29;114518;-82
2023/04/08 02:07:53;;;;;;;74.07;37.03;;;3.60;72.30;;;;;;4681772;29;114552;-83
2023/04/08 02:10:20;;;;;;;60.72;33.83;;;3.60;72.40;;;;;;4709358;29;115300;-83
2023/04/08 02:12:50;;;;;;;67.93;35.33;;;3.60;72.50;;;;;;4695303;29;114659;-82
2023/04/08 02:15:18;;;;;;;64.45;35.65;;;3.50;72.70;;;;;;4694877;29;116064;-82
2023/04/08 02:17:55;;;;;;;58.92;34.10;;;3.50;72.60;;;;;;4693127;29;115543;-82
2023/04/08 02:20:38;;;;;;;53.45;31.15;;;3.50;72.70;;;;;;4709806;29;115200;-82
2023/04/08 02:23:18;;;;;;;57.42;34.55;;;3.40;72.80;;;;;;4680949;29;115476;-83
2023/04/08 02:25:46;;;;;;;64.10;36.80;;;3.40;72.80;;;;;;4725207;29;114600;-83
2023/04/08 02:28:16;;;;;;;68.18;40.10;;;3.30;72.70;;;;;;4680096;29;114712;-83
2023/04/08 02:30:49;;;;;;;61.72;36.88;;;3.20;72.70;;;;;;4709912;29;115410;-83
2023/04/08 02:33:21;;;;;;;63.08;39.45;;;3.20;72.90;;;;;;4724849;29;114948;-85
2023/04/08 02:35:53;;;;;;;59.58;38.15;;;3.10;73.10;;;;;;4723903;29;114882;-85
2023/04/08 02:38:22;;;;;;;65.63;39.80;;;3.00;73.10;;;;;;4681998;29;114523;-85
2023/04/08 02:40:50;;;;;;;59.10;36.03;;;2.90;73.30;;;;;;4708410;29;115322;-84
2023/04/08 02:43:20;;;;;;;60.38;36.25;;;3.00;73.50;;;;;;4695738;29;115532;-84
2023/04/08 02:45:47;;;;;;;59.40;36.33;;;3.00;73.50;;;;;;4719960;29;114426;-84
2023/04/08 02:48:15;;;;;;;57.15;35.58;;;2.90;73.40;;;;;;4717459;29;114678;-82
2023/04/08 02:50:42;;;;;;;58.55;35.85;;;2.90;73.60;;;;;;4723861;29;115243;-82
2023/04/08 02:53:10;;;;;;;61.25;36.85;;;3.00;73.40;;;;;;4725145;29;114786;-82
2023/04/08 02:55:38;;;;;;;64.22;38.92;;;2.90;73.50;;;;;;4723621;29;114649;-83
2023/04/08 02:58:05;;;;;;;63.47;36.80;;;2.90;73.50;;;;;;4696445;29;114636;-83
2023/04/08 03:00:32;;;;;;;70.18;39.88;;;2.90;73.50;;;;;;4724851;29;115708;-83
2023/04/08 03:03:00;;;;;;;60.67;37.42;;;2.90;73.50;;;;;;4724944;29;115984;-83
2023/04/08 03:05:31;;;;;;;64.95;38.50;;;2.80;73.70;;;;;;4725684;29;114364;-82
2023/04/08 03:07:58;;;;;;;61.75;37.92;;;2.80;73.90;;;;;;4695196;29;114453;-82
2023/04/08 03:10:26;;;;;;;60.13;36.95;;;2.90;73.90;;;;;;4715579;29;115235;-82
2023/04/08 03:12:53;;;;;;;63.65;39.05;;;2.90;73.90;;;;;;4708211;29;114923;-81
2023/04/08 03:15:20;;;;;;;66.25;41.22;;;2.90;73.80;;;;;;4723708;29;115086;-82
2023/04/08 03:17:48;;;;;;;61.65;39.72;;;3.00;73.80;;;;;;4710535;29;114583;-82
2023/04/08 03:20:15;;;;;;;63.20;40.40;;;3.00;73.80;;;;;;4725298;29;116108;-82
2023/04/08 03:22:43;;;;;;;63.97;39.15;;;3.00;73.70;;;;;;4710372;29;115351;-83
2023/04/08 03:25:10;;;;;;;59.72;38.13;;;3.00;73.50;;;;;;4695585;29;114522;-81
2023/04/08 03:27:38;;;;;;;62.45;39.90;;;3.00;73.60;;;;;;4709930;29;117678;-83
2023/04/08 03:30:07;;;;;;;65.93;42.88;;;3.00;73.70;;;;;;4707504;29;115341;-81
2023/04/08 03:32:35;;;;;;;67.45;41.60;;;3.00;73.60;;;;;;4724667;29;114782;-80
2023/04/08 03:35:03;;;;;;;71.55;45.30;;;3.00;73.60;;;;;;4713012;29;114392;-81
2023/04/08 03:37:31;;;;;;;74.10;45.35;;;3.00;73.60;;;;;;4723843;29;114517;-82
2023/04/08 03:39:58;;;;;;;66.15;43.05;;;3.00;73.60;;;;;;4708128;29;115527;-82
2023/04/08 03:42:26;;;;;;;66.68;42.97;;;3.00;73.60;;;;;;4723578;29;114921;-82
2023/04/08 03:44:53;;;;;;;63.00;41.38;;;3.00;73.50;;;;;;4725157;29;114703;-82
2023/04/08 03:47:21;;;;;;;65.35;41.10;;;2.90;73.60;;;;;;4724767;29;114475;-82
2023/04/08 03:49:48;;;;;;;74.53;46.83;;;3.00;73.70;;;;;;4691469;29;115896;-82
2023/04/08 03:52:16;;;;;;;63.40;41.58;;;2.90;73.70;;;;;;4724645;29;114740;-81
2023/04/08 03:54:43;;;;;;;78.40;49.33;;;3.00;73.80;;;;;;4725971;29;114316;-82
2023/04/08 03:57:11;;;;;;;69.75;45.17;;;3.00;73.80;;;;;;4694092;29;114464;-83
2023/04/08 03:59:39;;;;;;;65.95;41.65;;;3.00;73.80;;;;;;4728581;29;116013;-82
2023/04/08 04:02:08;;;;;;;79.47;50.40;;;3.00;73.70;;;;;;4714364;29;114930;-82
2023/04/08 04:04:36;;;;;;;71.53;44.25;;;3.10;73.60;;;;;;4703877;29;114545;-81
2023/04/08 04:07:03;;;;;;;71.72;45.85;;;3.10;73.60;;;;;;4707855;29;114460;-81
2023/04/08 04:09:31;;;;;;;79.63;47.92;;;3.10;73.50;;;;;;4711048;29;115281;-82
2023/04/08 04:11:58;;;;;;;69.05;46.10;;;3.00;73.60;;;;;;4708749;29;114732;-82
2023/04/08 04:14:26;;;;;;;74.57;47.58;;;2.90;73.70;;;;;;4692688;29;114389;-82
2023/04/08 04:16:54;;;;;;;71.28;45.95;;;2.90;73.90;;;;;;4713766;29;114875;-82
2023/04/08 04:19:22;;;;;;;72.07;45.00;;;2.90;73.90;;;;;;4711435;29;115262;-83
2023/04/08 04:21:50;;;;;;;74.55;45.05;;;2.90;74.00;;;;;;4692591;29;114763;-83
2023/04/08 04:24:17;;;;;;;75.47;47.55;;;3.00;73.90;;;;;;4693445;29;114857;-82
2023/04/08 04:26:45;;;;;;;68.78;42.80;;;3.00;73.90;;;;;;4710778;29;114593;-81
2023/04/08 04:29:12;;;;;;;71.93;43.92;;;3.00;73.80;;;;;;4682133;29;115364;-81
2023/04/08 04:31:40;;;;;;;75.03;45.38;;;3.00;73.90;;;;;;4719077;29;114514;-83
2023/04/08 04:34:07;;;;;;;76.68;47.05;;;3.10;73.90;;;;;;4722187;29;115641;-81
2023/04/08 04:36:35;;;;;;;71.50;43.03;;;3.10;73.90;;;;;;4709794;29;114588;-82
2023/04/08 04:39:03;;;;;;;67.70;42.28;;;3.20;73.70;;;;;;4696635;29;115280;-83
2023/04/08 04:41:30;;;;;;;70.80;43.75;;;3.20;73.60;;;;;;4698734;29;114795;-83
2023/04/08 04:43:58;;;;;;;69.53;42.35;;;3.20;73.60;;;;;;4698284;29;114768;-85
2023/04/08 04:46:26;;;;;;;70.28;43.65;;;3.20;73.70;;;;;;4652672;29;114649;-84
2023/04/08 04:48:55;;;;;;;64.00;39.60;;;3.20;73.70;;;;;;4680245;29;115308;-85
2023/04/08 04:51:22;;;;;;;73.00;41.38;;;3.20;73.60;;;;;;4670647;29;117266;-83
2023/04/08 04:53:50;;;;;;;61.70;38.30;;;3.30;73.40;;;;;;4667070;29;114549;-85
2023/04/08 04:56:17;;;;;;;67.85;41.28;;;3.30;73.40;;;;;;4694334;29;114616;-82
2023/04/08 04:58:45;;;;;;;76.97;45.13;;;3.30;73.40;;;;;;4723568;29;115273;-81
2023/04/08 05:01:12;;;;;;;68.93;41.80;;;3.30;73.30;;;;;;4721751;29;115223;-81
2023/04/08 05:03:40;;;;;;;64.70;39.30;;;3.30;73.20;;;;;;4723945;29;114527;-82
2023/04/08 05:06:07;;;;;;;63.95;40.65;;;3.40;73.20;;;;;;4709536;29;114876;-83
2023/04/08 05:08:34;;;;;;;65.93;39.85;;;3.50;73.00;;;;;;4708072;29;115584;-83
2023/04/08 05:11:02;;;;;;;55.58;35.67;;;3.40;72.90;;;;;;4723263;29;114782;-83
2023/04/08 05:13:29;;;;;;;62.33;39.95;;;3.40;72.90;;;;;;4706742;29;114506;-85
2023/04/08 05:15:57;;;;;;;63.00;39.70;;;3.40;73.00;;;;;;4706656;29;114719;-84
2023/04/08 05:18:24;;;;;;;64.70;41.45;;;3.30;73.00;;;;;;4701638;29;115304;-83
2023/04/08 05:20:52;;;;;;;62.03;38.42;;;3.40;73.30;;;;;;4688155;29;115245;-83
2023/04/08 05:23:20;;;;;;;62.83;39.25;;;3.40;73.30;;;;;;4705146;29;114566;-83
2023/04/08 05:25:47;;;;;;;64.90;40.63;;;3.40;73.10;;;;;;4704655;29;115139;-82
2023/04/08 05:28:15;;;;;;;65.50;38.55;;;3.40;73.00;;;;;;4688104;29;115435;-83
2023/04/08 05:30:42;;;;;;;67.10;41.33;;;3.40;73.00;;;;;;4689002;29;115919;-83
2023/04/08 05:33:09;;;;;;;72.43;43.63;;;3.30;73.00;;;;;;4688270;29;114619;-83
2023/04/08 05:35:37;;;;;;;65.93;39.42;;;3.30;73.10;;;;;;4704196;29;114500;-83
2023/04/08 05:38:05;;;;;;;68.68;39.08;;;3.20;73.10;;;;;;4644520;29;116310;-83
2023/04/08 05:40:32;;;;;;;68.57;41.08;;;3.20;73.10;;;;;;4688582;29;116125;-83
2023/04/08 05:43:00;;;;;;;65.82;38.95;;;3.20;73.10;;;;;;4690053;29;114503;-83
2023/04/08 05:45:28;;;;;;;68.20;40.58;;;3.20;73.30;;;;;;4648540;29;114681;-83
2023/04/08 05:47:55;;;;;;;66.75;39.83;;;3.20;73.40;;;;;;4676306;29;119052;-83
2023/04/08 05:50:22;;;;;;;68.82;40.70;;;3.10;73.40;;;;;;4690085;29;115062;-84
2023/04/08 05:52:50;;;;;;;64.28;40.05;;;3.10;73.40;;;;;;4696836;29;114559;-84
2023/04/08 05:55:17;;;;;;;70.82;42.40;;;3.10;73.40;;;;;;4678162;29;114661;-83
2023/04/08 05:57:44;;;;;;;64.53;38.83;;;3.20;73.50;;;;;;4647018;29;116270;-84
2023/04/08 06:00:12;;;;;;;67.93;39.17;;;3.10;73.50;;;;;;4701281;29;114687;-83
2023/04/08 06:02:39;;;;;;;65.72;37.85;;;3.20;73.40;;;;;;4670156;30;116245;-84
2023/04/08 06:05:07;;;;;;;68.90;41.72;;;3.20;73.30;;;;;;4702419;29;114750;-83
2023/04/08 06:07:35;;;;;;;66.88;40.47;;;3.20;73.40;;;;;;4672784;29;118920;-83
2023/04/08 06:10:04;;;;;;;65.53;39.28;;;3.20;73.40;;;;;;4702962;29;115092;-83
2023/04/08 06:12:36;;;;;;;68.75;39.83;;;3.20;73.40;;;;;;4702995;29;114856;-83
2023/04/08 06:15:07;;;;;;;63.53;35.35;;;3.10;73.50;;;;;;4661443;29;115176;-83
2023/04/08 06:17:36;;;;;;;62.95;37.50;;;3.10;73.40;;;;;;4709646;29;115290;-83
2023/04/08 06:20:05;;;;;;;56.08;33.75;;;3.00;73.80;;;;;;4710613;29;114977;-83
2023/04/08 06:22:32;;;;;;;58.90;34.85;;;3.10;73.70;;;;;;4707962;29;114352;-83
2023/04/08 06:25:00;;;;;;;61.17;37.65;;;3.10;73.70;;;;;;4723712;29;114279;-83
2023/04/08 06:27:30;;;;;;;61.60;37.15;;;3.10;73.70;;;;;;4700620;29;115248;-83
2023/04/08 06:29:57;;;;;;;60.63;35.47;;;3.20;73.70;;;;;;4717793;29;114755;-83
2023/04/08 06:32:24;;;;;;;59.50;36.30;;;3.20;73.70;;;;;;4700179;29;114358;-83
2023/04/08 06:34:52;;;;;;;63.45;37.17;;;3.30;73.60;;;;;;4717361;29;114507;-83
2023/04/08 06:37:19;;;;;;;55.97;33.95;;;3.40;73.50;;;;;;4680606;29;114660;-84
2023/04/08 06:39:47;;;;;;;55.30;35.70;;;3.50;73.30;;;;;;4714293;29;118271;-84
2023/04/08 06:42:14;;;;;;;64.65;38.03;;;3.60;73.10;;;;;;4720891;29;114541;-84
2023/04/08 06:45:07;;;;;;;58.00;36.97;;;3.60;72.90;;;;;;4698582;29;114987;-83
2023/04/08 06:47:34;;;;;;;56.63;35.97;;;3.50;72.80;;;;;;4692990;29;115591;-82
2023/04/08 06:50:02;;;;;;;53.10;32.08;;;3.60;72.80;;;;;;4704720;29;114709;-83
2023/04/08 06:52:30;;;;;;;51.95;32.70;;;3.60;72.70;;;;;;4694849;29;117474;-82
2023/04/08 06:54:59;;;;;;;57.95;35.78;;;3.60;72.40;;;;;;4693898;29;114884;-83
2023/04/08 06:57:28;;;;;;;52.45;33.15;;;3.60;72.50;;;;;;4723042;29;115106;-83
2023/04/08 06:59:56;;;;;;;53.95;34.00;;;3.70;72.40;;;;;;4722950;29;114590;-83
2023/04/08 07:02:24;;;;;;;50.17;31.98;;;3.70;72.30;;;;;;4723848;29;114455;-83
2023/04/08 07:04:51;;;;;;;53.80;33.60;;;3.70;72.10;;;;;;4708122;29;114833;-83
2023/04/08 07:07:19;;;;;;;61.67;36.97;;;3.80;72.20;;;;;;4692436;29;115718;-84
2023/04/08 07:09:46;;;;;;;55.55;34.38;;;3.80;72.20;;;;;;4723078;29;114676;-83
2023/04/08 07:12:13;;;;;;;52.85;34.60;;;3.80;72.20;;;;;;4692745;29;114528;-83
2023/04/08 07:14:41;;;;;;;56.40;34.60;;;3.90;72.00;;;;;;4722557;29;114539;-83
2023/04/08 07:17:08;;;;;;;55.58;35.85;;;3.90;72.00;;;;;;4706420;29;115300;-84
2023/04/08 07:19:36;;;;;;;55.53;34.88;;;3.90;72.10;;;;;;4706055;29;114819;-84
2023/04/08 07:22:04;;;;;;;49.47;31.85;;;4.00;71.90;;;;;;4723301;29;114483;-82
2023/04/08 07:24:33;;;;;;;49.22;31.85;;;4.10;71.70;;;;;;4707777;29;118201;-83
2023/04/08 07:27:01;;;;;;;52.55;33.05;;;4.00;71.50;;;;;;4706751;29;115851;-82
2023/04/08 07:29:29;;;;;;;49.58;32.42;;;4.00;71.60;;;;;;4721136;29;114955;-84
2023/04/08 07:31:56;;;;;;;48.53;31.83;;;4.10;71.80;;;;;;4707168;29;114756;-84
2023/04/08 07:34:24;;;;;;;50.00;31.80;;;4.10;71.60;;;;;;4708344;29;114864;-83
2023/04/08 07:37:00;;;;;;;49.70;33.05;;;4.20;71.30;;;;;;4722530;29;115238;-83
2023/04/08 07:39:29;;;;;;;48.50;32.00;;;4.20;71.10;;;;;;4706683;29;114771;-85
2023/04/08 07:41:56;;;;;;;57.00;33.95;;;4.20;71.00;;;;;;4722562;29;114653;-83
2023/04/08 07:44:23;;;;;;;63.58;37.97;;;4.20;70.90;;;;;;4707360;29;114566;-84
2023/04/08 07:46:50;;;;;;;64.03;39.20;;;4.20;70.80;;;;;;4722622;29;115182;-85
2023/04/08 07:49:18;;;;;;;59.85;37.17;;;4.10;70.80;;;;;;4720931;29;114611;-84
2023/04/08 07:51:45;;;;;;;59.67;38.20;;;4.00;71.00;;;;;;4692455;29;114758;-84
2023/04/08 07:54:16;;;;;;;60.25;38.40;;;3.90;71.30;;;;;;4707520;29;114453;-84
2023/04/08 07:56:43;;;;;;;55.72;34.75;;;3.80;71.60;;;;;;4721243;29;115180;-84
2023/04/08 07:59:11;;;;;;;59.13;37.55;;;3.80;71.70;;;;;;4722726;29;114718;-83
2023/04/08 08:01:40;;;;;;;60.30;36.53;;;3.70;71.50;;;;;;4694910;29;114884;-83
2023/04/08 08:04:07;;;;;;;60.38;37.67;;;3.70;71.70;;;;;;4706605;29;114261;-84
2023/04/08 08:06:35;;;;;;;59.30;37.28;;;3.70;71.90;;;;;;4695688;29;116941;-83
2023/04/08 08:09:04;;;;;;;63.83;40.10;;;3.70;72.00;;;;;;4722206;29;114771;-82
2023/04/08 08:11:31;;;;;;;65.32;39.53;;;3.70;72.10;;;;;;4707047;29;114686;-81
2023/04/08 08:14:00;;;;;;;63.42;37.35;;;3.70;72.10;;;;;;4721297;29;114647;-82
2023/04/08 08:16:29;;;;;;;65.53;40.83;;;3.70;72.20;;;;;;4718777;29;115253;-83
2023/04/08 08:18:57;;;;;;;64.75;40.72;;;3.70;72.20;;;;;;4706080;29;116629;-85
2023/04/08 08:21:25;;;;;;;64.82;39.63;;;3.80;72.30;;;;;;4721723;29;114552;-84
2023/04/08 08:23:56;;;;;;;62.20;37.08;;;3.90;72.00;;;;;;4693549;29;114442;-83
2023/04/08 08:26:25;;;;;;;61.63;37.70;;;3.90;71.70;;;;;;4711077;29;115365;-84
2023/04/08 08:28:54;;;;;;;60.92;37.63;;;3.90;71.90;;;;;;4731535;29;114516;-83
2023/04/08 08:31:21;;;;;;;58.97;37.88;;;3.90;71.90;;;;;;4730411;29;114476;-86
2023/04/08 08:33:49;;;;;;;61.10;38.88;;;4.00;71.70;;;;;;4700026;29;114547;-84
2023/04/08 08:36:17;;;;;;;59.47;38.35;;;4.00;71.80;;;;;;4720799;29;115146;-85
2023/04/08 08:38:44;;;;;;;59.70;36.97;;;4.10;71.80;;;;;;4708622;29;115006;-84
2023/04/08 08:41:12;;;;;;;57.00;36.55;;;4.10;71.50;;;;;;4717803;29;117028;-83
2023/04/08 08:43:39;;;;;;;54.00;36.03;;;4.20;71.30;;;;;;4722298;29;114494;-84
2023/04/08 08:46:12;;;;;;;60.15;35.53;;;4.20;71.10;;;;;;4690693;29;115250;-85
2023/04/08 08:48:40;;;;;;;55.47;35.40;;;4.30;70.80;;;;;;4692145;29;118321;-84
2023/04/08 08:51:09;;;;;;;56.10;35.75;;;4.20;70.60;;;;;;4697635;29;114927;-84
2023/04/08 08:53:37;;;;;;;54.55;34.55;;;4.30;70.60;;;;;;4721026;29;114922;-84
2023/04/08 08:56:05;;;;;;;54.05;34.28;;;4.30;70.60;;;;;;4697099;29;115915;-84
2023/04/08 08:58:48;;;;;;;47.28;31.77;;;4.30;70.20;;;;;;4691849;29;114944;-84
2023/04/08 09:01:36;;;;;;;46.83;30.80;;;4.20;70.30;;;;;;4722626;29;114899;-83
2023/04/08 09:04:15;;;;;;;49.53;32.22;;;4.40;70.30;;;;;;4685121;29;114635;-85
2023/04/08 09:06:50;;;;;;;51.85;32.97;;;4.40;70.10;;;;;;4685756;29;116775;-84
2023/04/08 09:09:17;;;;;;;49.33;31.90;;;4.50;69.90;;;;;;4700072;29;114750;-84
2023/04/08 09:11:46;;;;;;;51.78;33.22;;;4.50;69.90;;;;;;4687266;29;114936;-85
2023/04/08 09:14:23;;;;;;;53.47;36.20;;;4.50;70.00;;;;;;4705754;29;116362;-86
2023/04/08 09:16:50;;;;;;;58.05;36.88;;;4.60;70.10;;;;;;4676769;29;118032;-85
2023/04/08 09:19:18;;;;;;;61.33;38.28;;;4.70;70.40;;;;;;4704050;29;114833;-85
2023/04/08 09:21:46;;;;;;;62.90;40.03;;;4.90;70.10;;;;;;4710424;29;117810;-83
2023/04/08 09:24:29;;;;;;;58.60;38.20;;;5.20;69.90;;;;;;4703399;29;114647;-83
2023/04/08 09:26:57;;;;;;;60.78;38.15;;;5.40;69.60;;;;;;4681417;29;115356;-83
2023/04/08 09:29:27;;;;;;;56.45;36.22;;;5.50;69.10;;;;;;4704861;29;114707;-84
2023/04/08 09:32:01;;;;;;;57.17;39.22;;;5.70;68.60;;;;;;4708560;29;114393;-86
2023/04/08 09:34:31;;;;;;;58.03;38.47;;;5.80;68.20;;;;;;4700543;29;116361;-85
2023/04/08 09:36:58;;;;;;;49.13;34.05;;;5.90;68.10;;;;;;4678944;29;118541;-85
2023/04/08 09:39:25;;;;;;;50.33;34.38;;;6.00;67.40;;;;;;4690363;29;114810;-87
2023/04/08 09:41:55;;;;;;;50.78;34.38;;;6.10;66.90;;;;;;4706890;29;115954;-86
2023/04/08 09:44:22;;;;;;;50.17;34.97;;;6.10;67.20;;;;;;4675399;29;114672;-84
2023/04/08 09:46:50;;;;;;;49.47;35.22;;;6.30;67.00;;;;;;4690127;29;121152;-82
2023/04/08 09:49:27;;;;;;;48.40;33.00;;;6.40;66.80;;;;;;4716291;29;115288;-83
2023/04/08 09:52:12;;;;;;;46.63;31.67;;;6.50;66.00;;;;;;4717619;29;114495;-85
2023/04/08 09:54:48;;;;;;;48.22;31.40;;;6.50;65.70;;;;;;4712250;29;114420;-85
2023/04/08 09:57:21;;;;;;;44.17;31.30;;;6.40;65.60;;;;;;4678832;29;115396;-85
2023/04/08 10:00:16;;;;;;;44.88;31.10;;;6.40;65.60;;;;;;4677191;29;117429;-85
2023/04/08 10:03:21;;;;;;;45.25;31.77;;;6.40;65.40;;;;;;4697323;29;114541;-83
2023/04/08 10:05:53;;;;;;;38.58;26.25;;;6.40;65.60;;;;;;4684717;29;114683;-84
2023/04/08 10:08:20;;;;;;;41.72;29.20;;;6.30;65.60;;;;;;4696437;29;117278;-84
2023/04/08 10:10:47;;;;;;;41.78;29.33;;;6.40;65.20;;;;;;4681675;29;115391;-86
2023/04/08 10:13:15;;;;;;;34.40;25.05;;;6.40;65.00;;;;;;4700388;29;114796;-84
2023/04/08 10:15:43;;;;;;;33.30;25.02;;;6.40;64.90;;;;;;4701883;29;114492;-85
2023/04/08 10:18:10;;;;;;;31.27;21.33;;;6.50;64.90;;;;;;4678960;29;116519;-85
2023/04/08 10:20:44;;;;;;;30.65;23.33;;;6.60;64.50;;;;;;4684343;29;117619;-86
2023/04/08 10:23:13;;;;;;;27.55;20.13;;;6.70;63.70;;;;;;4697897;29;114538;-85
2023/04/08 10:25:42;;;;;;;31.92;23.13;;;6.80;63.60;;;;;;4684573;29;116045;-85
2023/04/08 10:28:19;;;;;;;34.15;25.55;;;6.90;63.50;;;;;;4698780;29;116154;-86
2023/04/08 10:30:48;;;;;;;32.20;24.30;;;6.90;63.30;;;;;;4696921;29;114915;-85
2023/04/08 10:33:21;;;;;;;28.95;21.05;;;6.80;63.00;;;;;;4665714;29;114671;-84
2023/04/08 10:36:10;;;;;;;28.67;20.60;;;6.70;63.10;;;;;;4681250;29;114868;-85
2023/04/08 10:38:38;;;;;;;27.77;20.70;;;6.60;63.30;;;;;;4670048;29;115426;-85
2023/04/08 10:41:05;;;;;;;27.30;19.10;;;6.60;63.50;;;;;;4684167;29;115242;-86
2023/04/08 10:43:33;;;;;;;26.15;19.50;;;6.70;63.20;;;;;;4700847;29;114641;-86
2023/04/08 10:46:01;;;;;;;24.50;18.52;;;6.80;63.00;;;;;;4679708;29;115717;-85
2023/04/08 10:48:28;;;;;;;23.10;18.08;;;6.80;62.80;;;;;;4680558;29;115307;-87
2023/04/08 10:51:02;;;;;;;25.10;18.25;;;6.80;62.40;;;;;;4666685;29;117219;-85
2023/04/08 10:53:32;;;;;;;21.85;16.85;;;6.80;61.90;;;;;;4668123;29;114689;-84
2023/04/08 10:56:16;;;;;;;22.88;16.25;;;6.70;62.10;;;;;;4662283;29;114671;-83
2023/04/08 10:58:49;;;;;;;25.23;16.75;;;6.80;61.90;;;;;;4666190;29;115187;-85
2023/04/08 11:01:16;;;;;;;23.58;17.00;;;6.90;61.70;;;;;;4659315;29;120850;-83
2023/04/08 11:03:44;;;;;;;25.13;16.88;;;6.80;62.10;;;;;;4689205;29;114637;-84
2023/04/08 11:06:11;;;;;;;27.02;19.92;;;6.90;61.70;;;;;;4655426;29;114712;-84
2023/04/08 11:08:44;;;;;;;26.52;19.63;;;7.00;61.50;;;;;;4657274;29;119344;-85
2023/04/08 11:11:11;;;;;;;25.15;18.42;;;7.00;61.30;;;;;;4676567;29;118282;-85
2023/04/08 11:13:41;;;;;;;24.70;18.27;;;6.90;61.40;;;;;;4654794;29;114688;-85
2023/04/08 11:16:21;;;;;;;23.85;17.52;;;6.80;61.60;;;;;;4677396;29;114635;-84
2023/04/08 11:18:52;;;;;;;27.15;18.63;;;6.80;61.60;;;;;;4661986;29;116584;-84
2023/04/08 11:21:21;;;;;;;25.48;17.80;;;6.90;61.30;;;;;;4692448;29;115102;-84
2023/04/08 11:23:51;;;;;;;23.23;17.38;;;7.00;61.50;;;;;;4707410;29;114478;-85
2023/04/08 11:26:20;;;;;;;24.45;17.83;;;7.20;61.30;;;;;;4685540;29;116588;-84
2023/04/08 11:28:49;;;;;;;19.77;14.85;;;7.40;60.50;;;;;;4685502;29;117797;-83
2023/04/08 11:31:17;;;;;;;22.05;16.08;;;7.40;59.50;;;;;;4691204;29;114966;-83
2023/04/08 11:33:48;;;;;;;20.55;16.45;;;7.30;59.40;;;;;;4675274;29;114714;-83
2023/04/08 11:36:20;;;;;;;23.20;16.00;;;7.30;59.60;;;;;;4713528;29;115135;-85
2023/04/08 11:38:51;;;;;;;21.42;15.13;;;7.20;59.40;;;;;;4718132;29;115274;-83
2023/04/08 11:41:37;;;;;;;20.92;13.90;;;7.20;59.00;;;;;;4708011;29;118942;-87
2023/04/08 11:44:05;;;;;;;20.35;16.25;;;7.10;58.80;;;;;;4733531;29;114544;-83
2023/04/08 11:46:34;;;;;;;19.08;13.55;;;7.10;59.30;;;;;;4708030;29;118533;-85
2023/04/08 11:49:06;;;;;;;15.43;13.15;;;7.20;59.10;;;;;;4721506;29;115183;-84
2023/04/08 11:51:52;;;;;;;15.65;11.70;;;7.20;58.20;;;;;;4686823;29;115007;-85
2023/04/08 11:54:31;;;;;;;15.05;10.98;;;7.40;58.00;;;;;;4707512;29;114532;-85
2023/04/08 11:57:01;;;;;;;14.15;10.88;;;7.60;56.50;;;;;;4701693;29;114682;-84
2023/04/08 11:59:29;;;;;;;13.82;11.25;;;7.70;57.10;;;;;;4711184;29;117508;-84
2023/04/08 12:01:56;;;;;;;13.88;11.35;;;7.80;55.90;;;;;;4703612;29;114677;-84
2023/04/08 12:04:24;;;;;;;13.95;10.15;;;7.80;55.30;;;;;;4717907;29;114682;-83
2023/04/08 12:06:52;;;;;;;14.55;10.38;;;8.00;55.30;;;;;;4715267;29;114589;-85
2023/04/08 12:09:19;;;;;;;12.63;10.30;;;8.20;55.10;;;;;;4699167;29;116495;-84
2023/04/08 12:11:46;;;;;;;11.65;9.48;;;8.20;54.60;;;;;;4702757;29;114824;-85
2023/04/08 12:14:14;;;;;;;13.60;10.10;;;8.20;54.20;;;;;;4703429;29;114902;-84
2023/04/08 12:16:41;;;;;;;12.70;10.15;;;8.30;53.40;;;;;;4705597;29;114656;-85
2023/04/08 12:19:09;;;;;;;13.20;10.57;;;8.40;53.40;;;;;;4683745;29;115933;-84
2023/04/08 12:21:37;;;;;;;12.07;9.13;;;8.20;53.30;;;;;;4721072;29;114666;-84
2023/04/08 12:24:04;;;;;;;12.38;10.00;;;8.20;53.20;;;;;;4690043;29;114566;-85
2023/04/08 12:26:31;;;;;;;12.68;9.80;;;8.20;53.00;;;;;;4718709;29;115770;-85
2023/04/08 12:28:59;;;;;;;15.13;10.18;;;8.20;53.20;;;;;;4699460;29;115209;-84
2023/04/08 12:31:27;;;;;;;13.35;10.98;;;8.10;53.10;;;;;;4720687;29;114813;-85
2023/04/08 12:33:54;;;;;;;14.73;10.80;;;8.10;53.40;;;;;;4697766;29;114849;-85
2023/04/08 12:36:22;;;;;;;13.20;10.48;;;8.00;53.10;;;;;;4718837;29;115174;-84
2023/04/08 12:38:49;;;;;;;13.23;10.40;;;7.90;53.60;;;;;;4692498;29;115295;-88
2023/04/08 12:41:18;;;;;;;15.07;10.93;;;7.90;53.50;;;;;;4706722;29;114561;-87